Terminal Aerodrome Forecast
Issued by NWS Nashville, TN

Home | Current Version | Previous Version | Text Only | Print | Product List | Glossary On
Versions: 1 2 3 4 5 6 7 8 9 10 11 12 13 14 15 16
446
FTUS44 KOHX 041120
TAFCSV
TAF
KCSV 041120Z 0412/0512 13008KT 4SM -SHRA BR OVC004
     FM041900 17006KT 2SM -DZ BR OVC003
     FM050600 29003KT 1/2SM FG OVC001=

USA.gov is the U.S. government's official web portal to all federal, state and local government web resources and services.